Cosby, Tennessee
Current Conditions -  °F | °C
As of 7:15 PM on Wednesday 26 Nov 2014 (Local Time) from KGKT Reporting Station
Scattered Clouds Scattered Clouds  
Wind Chill: 43°   Ceiling: Unl
Heat Index: 46°   Visibility: 10mi
Dew Point: 21°   Wind: 7mph
Humidity: 37%   Direction: 230°SW
Pressure: 30.03"   Gusts: NA
Location:  35.82°N, 83.23°W
Report Text: KGKT 270015Z AUTO 23006KT 10SM SCT085 08/M06 A3003 RMK
Loading
Personal Weather Stations






























Interactive Weather Map New forecast layout! Learn more

10-Day Weather Forecast

Advertisements
Track Severe Weather on mobile